createdAt,value
2023-10-23T06:20:54.667Z,1008.29
2023-10-23T06:21:54.724Z,1008.29
2023-10-23T06:22:54.599Z,1008.28
2023-10-23T06:23:54.598Z,1008.33
2023-10-23T06:24:54.614Z,1008.29
2023-10-23T06:25:54.594Z,1008.32
2023-10-23T06:26:54.564Z,1008.32
2023-10-23T06:27:54.588Z,1008.28
2023-10-23T06:28:54.532Z,1008.24
2023-10-23T06:29:54.524Z,1008.28
2023-10-23T06:30:54.567Z,1008.28
2023-10-23T06:31:54.526Z,1008.29
2023-10-23T06:32:54.499Z,1008.29
2023-10-23T06:33:54.541Z,1008.35
2023-10-23T06:34:54.466Z,1008.35
2023-10-23T06:35:54.444Z,1008.35
2023-10-23T06:36:54.568Z,1008.31
2023-10-23T06:37:54.450Z,1008.30
2023-10-23T06:38:54.413Z,1008.36
2023-10-23T06:39:54.400Z,1008.37
2023-10-23T06:40:54.388Z,1008.30
2023-10-23T06:41:54.427Z,1008.30
2023-10-23T06:42:54.380Z,1008.33
2023-10-23T06:43:54.353Z,1008.30
2023-10-23T06:44:54.388Z,1008.31
2023-10-23T06:46:01.161Z,1008.33
2023-10-23T06:46:55.360Z,1008.31
2023-10-23T06:47:54.366Z,1008.31
2023-10-23T06:48:54.311Z,1008.34
2023-10-23T06:49:54.287Z,1008.33
2023-10-23T06:50:54.334Z,1008.36
2023-10-23T06:51:54.257Z,1008.35
2023-10-23T06:52:54.287Z,1008.30
2023-10-23T06:53:54.263Z,1008.31
2023-10-23T06:54:54.230Z,1008.33
2023-10-23T06:55:54.214Z,1008.32
2023-10-23T06:56:54.210Z,1008.34
2023-10-23T06:57:54.190Z,1008.35
2023-10-23T06:58:54.200Z,1008.35
2023-10-23T06:59:54.165Z,1008.33
2023-10-23T07:00:54.208Z,1008.32
2023-10-23T07:01:54.181Z,1008.36
2023-10-23T07:02:54.182Z,1008.41
2023-10-23T07:03:54.301Z,1008.47
2023-10-23T07:04:54.190Z,1008.46
2023-10-23T07:05:54.167Z,1008.49
2023-10-23T07:06:54.099Z,1008.48
2023-10-23T07:07:54.083Z,1008.47
2023-10-23T07:08:54.270Z,1008.49
2023-10-23T07:09:54.061Z,1008.46
2023-10-23T07:10:55.451Z,1008.49
2023-10-23T07:11:54.073Z,1008.47
2023-10-23T07:12:54.271Z,1008.46
2023-10-23T07:13:54.020Z,1008.51
2023-10-23T07:14:54.095Z,1008.46
2023-10-23T07:15:54.123Z,1008.43
2023-10-23T07:16:54.002Z,1008.47
2023-10-23T07:17:54.052Z,1008.46
2023-10-23T07:18:54.003Z,1008.49
2023-10-23T07:19:53.957Z,1008.47
2023-10-23T07:20:53.959Z,1008.49
2023-10-23T07:21:53.990Z,1008.48
2023-10-23T07:22:53.918Z,1008.47
2023-10-23T07:23:53.944Z,1008.49
2023-10-23T07:24:53.916Z,1008.47
2023-10-23T07:25:53.885Z,1008.45
2023-10-23T07:26:53.898Z,1008.47
2023-10-23T07:27:54.213Z,1008.48
2023-10-23T07:28:53.857Z,1008.49
2023-10-23T07:29:53.893Z,1008.44
2023-10-23T07:30:53.829Z,1008.44
2023-10-23T07:31:53.824Z,1008.44
2023-10-23T07:32:53.833Z,1008.46
2023-10-23T07:33:53.888Z,1008.46
2023-10-23T07:34:53.790Z,1008.41
2023-10-23T07:35:54.007Z,1008.37
2023-10-23T07:36:53.859Z,1008.39
2023-10-23T07:37:53.742Z,1008.37
2023-10-23T07:38:53.777Z,1008.42
2023-10-23T07:39:53.807Z,1008.39
2023-10-23T07:40:53.808Z,1008.46
2023-10-23T07:41:53.747Z,1008.36
2023-10-23T07:42:53.868Z,1008.39
2023-10-23T07:43:53.793Z,1008.36
2023-10-23T07:44:53.664Z,1008.37
2023-10-23T07:46:04.014Z,1008.36
2023-10-23T07:46:54.706Z,1008.35
2023-10-23T07:47:53.667Z,1008.31
2023-10-23T07:48:53.722Z,1008.31
2023-10-23T07:49:53.605Z,1008.29
2023-10-23T07:50:53.598Z,1008.23
2023-10-23T07:51:53.602Z,1008.22
2023-10-23T07:52:53.563Z,1008.18
2023-10-23T07:53:53.547Z,1008.16
2023-10-23T07:54:53.594Z,1008.17
2023-10-23T07:55:53.522Z,1008.15
2023-10-23T07:56:53.549Z,1008.14
2023-10-23T07:57:53.527Z,1008.13
2023-10-23T07:58:53.511Z,1008.10
2023-10-23T07:59:54.702Z,1008.03
2023-10-23T08:00:53.525Z,1008.05
2023-10-23T08:01:53.634Z,1008.02
2023-10-23T08:02:53.518Z,1008.02
2023-10-23T08:03:53.561Z,1008.00
2023-10-23T08:04:53.656Z,1007.99
2023-10-23T08:05:53.407Z,1008.01
2023-10-23T08:06:53.448Z,1008.03
2023-10-23T08:07:53.391Z,1008.04
2023-10-23T08:08:53.368Z,1008.09
2023-10-23T08:09:53.382Z,1008.09
2023-10-23T08:10:53.348Z,1008.12
2023-10-23T08:11:53.350Z,1008.15
2023-10-23T08:12:53.467Z,1008.18
2023-10-23T08:13:53.328Z,1008.16
2023-10-23T08:14:53.307Z,1008.13
2023-10-23T08:15:53.937Z,1008.17
2023-10-23T08:16:53.438Z,1008.17
2023-10-23T08:17:53.470Z,1008.16
2023-10-23T08:18:53.354Z,1008.14
2023-10-23T08:19:53.416Z,1008.12
2023-10-23T08:20:53.248Z,1008.11
2023-10-23T08:21:53.276Z,1008.09
2023-10-23T08:22:53.272Z,1008.10
2023-10-23T08:23:53.208Z,1008.09
2023-10-23T08:24:53.228Z,1008.07
2023-10-23T08:25:53.181Z,1008.10
2023-10-23T08:26:53.168Z,1008.08
2023-10-23T08:27:53.207Z,1008.13
2023-10-23T08:29:01.967Z,1008.13
2023-10-23T08:29:54.140Z,1008.15
2023-10-23T08:30:53.156Z,1008.19
2023-10-23T08:31:53.179Z,1008.16
2023-10-23T08:32:53.444Z,1008.20
2023-10-23T08:33:53.175Z,1008.17
2023-10-23T08:34:53.075Z,1008.24
2023-10-23T08:35:53.580Z,1008.20
2023-10-23T08:36:53.120Z,1008.23
2023-10-23T08:37:53.088Z,1008.23
2023-10-23T08:38:53.032Z,1008.21
2023-10-23T08:39:53.080Z,1008.19
2023-10-23T08:40:53.007Z,1008.20
2023-10-23T08:41:53.004Z,1008.14
2023-10-23T08:42:53.012Z,1008.17
2023-10-23T08:43:52.979Z,1008.17
2023-10-23T08:44:52.985Z,1008.20
2023-10-23T08:45:52.994Z,1008.22
2023-10-23T08:46:53.024Z,1008.22
2023-10-23T08:47:52.971Z,1008.19
2023-10-23T08:48:52.949Z,1008.22
2023-10-23T08:49:52.909Z,1008.16
2023-10-23T08:50:52.937Z,1008.11
2023-10-23T08:51:52.927Z,1008.11
2023-10-23T08:52:52.880Z,1008.11
2023-10-23T08:54:03.162Z,1008.11
2023-10-23T08:54:53.862Z,1008.12
2023-10-23T08:55:52.838Z,1008.12
2023-10-23T08:56:52.851Z,1008.13
2023-10-23T08:57:52.861Z,1008.11
2023-10-23T08:58:52.807Z,1008.10
2023-10-23T08:59:52.796Z,1008.10
2023-10-23T09:00:52.904Z,1008.05
2023-10-23T09:01:52.885Z,1008.08
2023-10-23T09:02:53.810Z,1008.11
2023-10-23T09:04:04.525Z,1008.13
2023-10-23T09:04:53.941Z,1008.10
2023-10-23T09:05:52.726Z,1008.11
2023-10-23T09:06:52.739Z,1008.10
2023-10-23T09:07:52.731Z,1008.11
2023-10-23T09:08:52.692Z,1008.12
2023-10-23T09:09:52.705Z,1008.08
2023-10-23T09:10:52.675Z,1008.00
2023-10-23T09:11:52.658Z,1008.02
2023-10-23T09:12:52.671Z,1007.99
2023-10-23T09:13:52.664Z,1008.02
2023-10-23T09:14:52.630Z,1008.07
2023-10-23T09:15:52.717Z,1008.07
2023-10-23T09:16:52.716Z,1008.04
2023-10-23T09:17:52.636Z,1008.03
2023-10-23T09:18:52.717Z,1007.98
2023-10-23T09:19:52.579Z,1007.99
2023-10-23T09:20:52.569Z,1007.99
2023-10-23T09:21:52.625Z,1007.95
2023-10-23T09:22:52.532Z,1007.98
2023-10-23T09:23:52.530Z,1007.85
2023-10-23T09:24:52.554Z,1007.87
2023-10-23T09:25:52.516Z,1007.83
2023-10-23T09:26:52.489Z,1007.84
2023-10-23T09:27:52.508Z,1007.84
2023-10-23T09:28:52.472Z,1007.81
2023-10-23T09:29:52.471Z,1007.81
2023-10-23T09:30:52.502Z,1007.82
2023-10-23T09:31:52.508Z,1007.84
2023-10-23T09:32:52.482Z,1007.81
2023-10-23T09:33:52.445Z,1007.82
2023-10-23T09:34:52.421Z,1007.74
2023-10-23T09:35:52.385Z,1007.74
2023-10-23T09:36:52.478Z,1007.77
2023-10-23T09:37:52.364Z,1007.75
2023-10-23T09:38:52.351Z,1007.77
2023-10-23T09:39:52.429Z,1007.72
2023-10-23T09:40:52.330Z,1007.73
2023-10-23T09:41:52.384Z,1007.71
2023-10-23T09:42:52.418Z,1007.75
2023-10-23T09:43:52.292Z,1007.70
2023-10-23T09:44:52.304Z,1007.78
2023-10-23T09:45:52.293Z,1007.74
2023-10-23T09:46:52.328Z,1007.74
2023-10-23T09:47:52.293Z,1007.68
2023-10-23T09:48:55.577Z,1007.76
2023-10-23T09:49:53.332Z,1007.69
2023-10-23T09:50:52.836Z,1007.67
2023-10-23T09:51:52.253Z,1007.69
2023-10-23T09:52:52.196Z,1007.67
2023-10-23T09:53:52.195Z,1007.67
2023-10-23T09:54:54.795Z,1007.68
2023-10-23T09:55:52.154Z,1007.67
2023-10-23T09:56:52.202Z,1007.69
2023-10-23T09:57:52.210Z,1007.67
2023-10-23T09:58:52.126Z,1007.64
2023-10-23T09:59:52.150Z,1007.59
2023-10-23T10:00:54.287Z,1007.59
2023-10-23T10:01:52.315Z,1007.58
2023-10-23T10:02:52.237Z,1007.61
2023-10-23T10:03:52.127Z,1007.60
2023-10-23T10:04:52.145Z,1007.55
2023-10-23T10:05:52.044Z,1007.58
2023-10-23T10:06:53.980Z,1007.56
2023-10-23T10:07:52.030Z,1007.56
2023-10-23T10:08:52.017Z,1007.52
2023-10-23T10:09:52.100Z,1007.56
2023-10-23T10:10:52.007Z,1007.55
2023-10-23T10:11:51.990Z,1007.60
2023-10-23T10:12:51.987Z,1007.57
2023-10-23T10:13:51.951Z,1007.56
2023-10-23T10:14:51.960Z,1007.55
2023-10-23T10:15:52.074Z,1007.58
2023-10-23T10:16:51.982Z,1007.57
2023-10-23T10:17:51.942Z,1007.59
2023-10-23T10:18:51.945Z,1007.56
2023-10-23T10:19:51.888Z,1007.57
2023-10-23T10:20:51.916Z,1007.57
2023-10-23T10:21:51.957Z,1007.54
2023-10-23T10:22:53.206Z,1007.52
2023-10-23T10:23:51.838Z,1007.44
2023-10-23T10:24:51.872Z,1007.41
2023-10-23T10:25:51.855Z,1007.36
2023-10-23T10:26:51.811Z,1007.30
2023-10-23T10:27:51.867Z,1007.28
2023-10-23T10:28:53.156Z,1007.29
2023-10-23T10:29:51.773Z,1007.31
2023-10-23T10:30:51.929Z,1007.22
2023-10-23T10:31:51.807Z,1007.22
2023-10-23T10:34:26.390Z,1007.22
2023-10-23T10:34:28.854Z,1007.15
2023-10-23T10:34:55.599Z,1007.15
2023-10-23T10:35:51.805Z,1007.08
2023-10-23T10:36:51.928Z,1007.13
2023-10-23T10:37:51.712Z,1007.10
2023-10-23T10:38:51.677Z,1007.14
2023-10-23T10:39:51.695Z,1007.10
2023-10-23T10:40:52.073Z,1007.07
2023-10-23T10:41:51.702Z,1007.09
2023-10-23T10:42:51.700Z,1007.07
2023-10-23T10:43:51.624Z,1007.07
2023-10-23T10:44:51.609Z,1007.08
2023-10-23T10:45:51.612Z,1007.10
2023-10-23T10:46:55.490Z,1007.12
2023-10-23T10:47:51.626Z,1007.06
2023-10-23T10:48:51.591Z,1007.06
2023-10-23T10:49:51.547Z,1007.04
2023-10-23T10:50:51.548Z,1006.99
2023-10-23T10:51:51.597Z,1006.94
2023-10-23T10:52:51.546Z,1006.97
2023-10-23T10:53:51.514Z,1006.96
2023-10-23T10:54:51.506Z,1006.95
2023-10-23T10:55:51.479Z,1006.94
2023-10-23T10:56:51.470Z,1006.92
2023-10-23T10:57:51.547Z,1006.91
2023-10-23T10:58:51.460Z,1006.88
2023-10-23T10:59:51.435Z,1006.92
2023-10-23T11:00:51.529Z,1006.89
2023-10-23T11:01:51.469Z,1006.90
2023-10-23T11:02:53.424Z,1006.91
2023-10-23T11:03:51.482Z,1006.91
2023-10-23T11:04:51.419Z,1006.84
2023-10-23T11:05:51.404Z,1006.76
2023-10-23T11:06:51.417Z,1006.78
2023-10-23T11:07:51.353Z,1006.76
2023-10-23T11:08:51.381Z,1006.72
2023-10-23T11:09:51.351Z,1006.75
2023-10-23T11:10:51.318Z,1006.73
2023-10-23T11:11:51.301Z,1006.68
2023-10-23T11:12:51.329Z,1006.68
2023-10-23T11:13:51.330Z,1006.65
2023-10-23T11:14:51.268Z,1006.64
2023-10-23T11:15:51.318Z,1006.66
2023-10-23T11:16:51.332Z,1006.64
2023-10-23T11:17:51.282Z,1006.62
2023-10-23T11:18:51.249Z,1006.60
2023-10-23T11:19:51.279Z,1006.56
2023-10-23T11:20:51.208Z,1006.56
2023-10-23T11:21:51.235Z,1006.55
2023-10-23T11:22:51.180Z,1006.55
2023-10-23T11:23:51.164Z,1006.53
2023-10-23T11:24:51.213Z,1006.53
2023-10-23T11:25:51.143Z,1006.51
2023-10-23T11:26:51.132Z,1006.46
2023-10-23T11:27:51.158Z,1006.44
2023-10-23T11:28:51.109Z,1006.37
2023-10-23T11:29:51.154Z,1006.36
2023-10-23T11:30:51.220Z,1006.33
2023-10-23T11:31:51.260Z,1006.31
2023-10-23T11:32:51.086Z,1006.28
2023-10-23T11:33:51.078Z,1006.31
2023-10-23T11:34:51.060Z,1006.29
2023-10-23T11:35:51.056Z,1006.25
2023-10-23T11:36:51.064Z,1006.22
2023-10-23T11:37:51.005Z,1006.23
2023-10-23T11:38:50.998Z,1006.23
2023-10-23T11:39:50.998Z,1006.22
2023-10-23T11:40:51.047Z,1006.15
2023-10-23T11:41:50.963Z,1006.14
2023-10-23T11:42:50.984Z,1006.12
2023-10-23T11:43:50.940Z,1006.14
2023-10-23T11:44:50.933Z,1006.10
2023-10-23T11:45:51.048Z,1006.05
2023-10-23T11:46:51.058Z,1006.06
2023-10-23T11:47:50.908Z,1006.01
2023-10-23T11:48:50.913Z,1005.99
2023-10-23T11:49:50.876Z,1005.94
2023-10-23T11:50:50.868Z,1005.93
2023-10-23T11:51:50.881Z,1005.90
2023-10-23T11:52:50.892Z,1005.85
2023-10-23T11:53:50.829Z,1005.82
2023-10-23T11:54:50.866Z,1005.78
2023-10-23T11:55:50.809Z,1005.77
2023-10-23T11:56:50.828Z,1005.77
2023-10-23T11:57:50.816Z,1005.76
2023-10-23T11:58:50.776Z,1005.74
2023-10-23T11:59:50.817Z,1005.72
2023-10-23T12:00:50.791Z,1005.72
2023-10-23T12:01:50.751Z,1005.74
2023-10-23T12:02:50.805Z,1005.69
2023-10-23T12:03:50.807Z,1005.70
2023-10-23T12:04:50.861Z,1005.73
2023-10-23T12:05:50.694Z,1005.73
2023-10-23T12:06:50.725Z,1005.74
2023-10-23T12:07:50.685Z,1005.70
2023-10-23T12:08:50.687Z,1005.70
2023-10-23T12:09:50.679Z,1005.66
2023-10-23T12:10:50.653Z,1005.69
2023-10-23T12:11:50.633Z,1005.67
2023-10-23T12:12:50.680Z,1005.67
2023-10-23T12:13:50.624Z,1005.63
2023-10-23T12:14:52.652Z,1005.61
2023-10-23T12:15:50.598Z,1005.59
2023-10-23T12:16:50.623Z,1005.55
2023-10-23T12:17:50.600Z,1005.61
2023-10-23T12:18:50.567Z,1005.59
2023-10-23T12:19:50.555Z,1005.61
2023-10-23T12:20:50.527Z,1005.63
2023-10-23T12:21:50.542Z,1005.61
2023-10-23T12:22:50.504Z,1005.59
2023-10-23T12:23:50.498Z,1005.60
2023-10-23T12:24:50.526Z,1005.54
2023-10-23T12:25:50.498Z,1005.47
2023-10-23T12:26:50.458Z,1005.48
2023-10-23T12:27:50.472Z,1005.43
2023-10-23T12:28:50.470Z,1005.43
2023-10-23T12:29:50.425Z,1005.46
2023-10-23T12:30:50.514Z,1005.47
2023-10-23T12:32:00.406Z,1005.46
2023-10-23T12:33:17.281Z,1005.46
2023-10-23T12:33:51.642Z,1005.43
2023-10-23T12:34:50.569Z,1005.39
2023-10-23T12:35:50.379Z,1005.39
2023-10-23T12:36:50.388Z,1005.37
2023-10-23T12:37:50.347Z,1005.39
2023-10-23T12:38:50.332Z,1005.35
2023-10-23T12:39:50.357Z,1005.32
2023-10-23T12:40:50.565Z,1005.30
2023-10-23T12:41:50.292Z,1005.27
2023-10-23T12:42:50.325Z,1005.25
2023-10-23T12:43:50.345Z,1005.17
2023-10-23T12:44:50.281Z,1005.15
2023-10-23T12:45:50.298Z,1005.11
2023-10-23T12:46:51.767Z,1005.13
2023-10-23T12:47:50.264Z,1005.08
2023-10-23T12:48:50.253Z,1005.04
2023-10-23T12:49:50.196Z,1004.98
2023-10-23T12:50:50.187Z,1005.00
2023-10-23T12:51:50.206Z,1004.94
2023-10-23T12:52:50.175Z,1004.94
2023-10-23T12:53:50.169Z,1004.87
2023-10-23T12:54:50.179Z,1004.86
2023-10-23T12:55:50.130Z,1004.82
2023-10-23T12:56:50.127Z,1004.87
2023-10-23T12:57:50.142Z,1004.80
2023-10-23T12:58:50.125Z,1004.78
2023-10-23T12:59:50.094Z,1004.75
2023-10-23T13:00:50.120Z,1004.72
2023-10-23T13:01:50.096Z,1004.70
2023-10-23T13:02:50.113Z,1004.72
2023-10-23T13:03:50.083Z,1004.72
2023-10-23T13:04:50.229Z,1004.69
2023-10-23T13:05:50.025Z,1004.65
2023-10-23T13:06:50.018Z,1004.66
2023-10-23T13:07:50.001Z,1004.63
2023-10-23T13:08:50.019Z,1004.59
2023-10-23T13:09:50.010Z,1004.61
2023-10-23T13:10:49.970Z,1004.58
2023-10-23T13:11:49.947Z,1004.57
2023-10-23T13:12:50.011Z,1004.54
2023-10-23T13:13:49.926Z,1004.52
2023-10-23T13:14:49.939Z,1004.50
2023-10-23T13:15:49.932Z,1004.47
2023-10-23T13:16:50.035Z,1004.45
2023-10-23T13:17:49.941Z,1004.45
2023-10-23T13:18:53.202Z,1004.41
2023-10-23T13:19:49.896Z,1004.39
2023-10-23T13:21:26.791Z,1004.34
2023-10-23T13:21:50.851Z,1004.34
2023-10-23T13:22:51.048Z,1004.34
2023-10-23T13:23:49.811Z,1004.27
2023-10-23T13:24:49.847Z,1004.29
2023-10-23T13:26:05.981Z,1004.28
2023-10-23T13:26:50.777Z,1004.23
2023-10-23T13:27:49.801Z,1004.21
2023-10-23T13:28:49.757Z,1004.21
2023-10-23T13:29:49.767Z,1004.19
2023-10-23T13:30:49.805Z,1004.18
2023-10-23T13:31:50.901Z,1004.15
2023-10-23T13:32:50.491Z,1004.11
2023-10-23T13:33:49.730Z,1004.08
2023-10-23T13:34:49.687Z,1004.06
2023-10-23T13:35:49.709Z,1004.02
2023-10-23T13:36:49.704Z,1003.99
2023-10-23T13:37:49.660Z,1003.95
2023-10-23T13:38:49.652Z,1003.94
2023-10-23T13:39:49.668Z,1003.90
2023-10-23T13:40:49.662Z,1003.89
2023-10-23T13:41:49.617Z,1003.85
2023-10-23T13:42:49.659Z,1003.84
2023-10-23T13:43:49.594Z,1003.79
2023-10-23T13:44:49.575Z,1003.76
2023-10-23T13:45:49.667Z,1003.74
2023-10-23T13:46:49.635Z,1003.71
2023-10-23T13:47:49.586Z,1003.69
2023-10-23T13:48:49.599Z,1003.68
2023-10-23T13:49:49.525Z,1003.67
2023-10-23T13:50:49.508Z,1003.68
2023-10-23T13:51:49.548Z,1003.65
2023-10-23T13:52:49.503Z,1003.63
2023-10-23T13:53:49.484Z,1003.62
2023-10-23T13:54:49.590Z,1003.60
2023-10-23T13:55:49.457Z,1003.53
2023-10-23T13:56:49.450Z,1003.47
2023-10-23T13:57:49.477Z,1003.47
2023-10-23T13:58:49.422Z,1003.43
2023-10-23T13:59:49.431Z,1003.41
2023-10-23T14:00:49.556Z,1003.40
2023-10-23T14:01:49.424Z,1003.41
2023-10-23T14:02:49.501Z,1003.40
2023-10-23T14:03:49.577Z,1003.39
2023-10-23T14:04:49.505Z,1003.36
2023-10-23T14:05:49.342Z,1003.34
2023-10-23T14:06:49.366Z,1003.32
2023-10-23T14:07:49.324Z,1003.32
2023-10-23T14:09:43.532Z,1003.32
2023-10-23T14:09:52.785Z,1003.28
2023-10-23T14:11:57.215Z,1003.27
2023-10-23T14:12:00.375Z,1003.24
2023-10-23T14:12:50.281Z,1003.20
2023-10-23T14:13:49.297Z,1003.19
2023-10-23T14:14:49.247Z,1003.14
2023-10-23T14:15:49.256Z,1003.10
2023-10-23T14:16:49.259Z,1003.10
2023-10-23T14:17:49.269Z,1003.04
2023-10-23T14:18:49.222Z,1003.03
2023-10-23T14:19:49.485Z,1003.09
2023-10-23T14:20:49.216Z,1003.02
2023-10-23T14:21:49.193Z,1002.94
2023-10-23T14:22:49.160Z,1002.93
2023-10-23T14:23:49.153Z,1002.97
2023-10-23T14:24:49.535Z,1002.94
2023-10-23T14:25:49.124Z,1002.93
2023-10-23T14:26:49.115Z,1002.95
2023-10-23T14:27:49.134Z,1002.90
2023-10-23T14:28:49.106Z,1002.91
2023-10-23T14:29:49.081Z,1002.90
2023-10-23T14:30:49.168Z,1002.89
2023-10-23T14:31:49.195Z,1002.87
2023-10-23T14:32:49.104Z,1002.84
2023-10-23T14:33:49.080Z,1002.82
2023-10-23T14:34:49.024Z,1002.81
2023-10-23T14:35:49.029Z,1002.81
2023-10-23T14:36:49.185Z,1002.81
2023-10-23T14:37:49.003Z,1002.80
2023-10-23T14:38:48.983Z,1002.78
2023-10-23T14:39:48.978Z,1002.75
2023-10-23T14:40:48.980Z,1002.78
2023-10-23T14:41:48.949Z,1002.74
2023-10-23T14:42:48.946Z,1002.77
2023-10-23T14:43:48.929Z,1002.73
2023-10-23T14:44:48.923Z,1002.77
2023-10-23T14:45:49.033Z,1002.73
2023-10-23T14:46:48.951Z,1002.71
2023-10-23T14:47:48.931Z,1002.72
2023-10-23T14:48:48.872Z,1002.72
2023-10-23T14:49:48.861Z,1002.69
2023-10-23T14:50:48.876Z,1002.68
2023-10-23T14:51:48.844Z,1002.68
2023-10-23T14:52:48.852Z,1002.64
2023-10-23T14:53:48.817Z,1002.61
2023-10-23T14:54:48.815Z,1002.60
2023-10-23T14:55:48.794Z,1002.58
2023-10-23T14:56:48.805Z,1002.55
2023-10-23T14:57:48.776Z,1002.53
2023-10-23T14:58:48.763Z,1002.50
2023-10-23T14:59:48.749Z,1002.47
2023-10-23T15:00:48.737Z,1002.47
2023-10-23T15:01:48.856Z,1002.47
2023-10-23T15:02:48.760Z,1002.44
2023-10-23T15:03:48.782Z,1002.48
2023-10-23T15:04:48.713Z,1002.42
2023-10-23T15:05:48.683Z,1002.39
2023-10-23T15:06:48.679Z,1002.34
2023-10-23T15:07:48.693Z,1002.33
2023-10-23T15:08:48.670Z,1002.35
2023-10-23T15:09:48.637Z,1002.36
2023-10-23T15:10:48.625Z,1002.34
2023-10-23T15:11:48.616Z,1002.30
2023-10-23T15:12:48.620Z,1002.31
2023-10-23T15:13:48.597Z,1002.25
2023-10-23T15:14:48.578Z,1002.26
2023-10-23T15:15:48.579Z,1002.25
2023-10-23T15:16:48.615Z,1002.28
2023-10-23T15:17:48.610Z,1002.24
2023-10-23T15:18:48.551Z,1002.23
2023-10-23T15:19:48.536Z,1002.20
2023-10-23T15:20:48.520Z,1002.18
2023-10-23T15:21:48.519Z,1002.18
2023-10-23T15:22:48.523Z,1002.18
2023-10-23T15:23:48.487Z,1002.17
2023-10-23T15:24:48.500Z,1002.22
2023-10-23T15:25:48.465Z,1002.23
2023-10-23T15:26:48.955Z,1002.24
2023-10-23T15:27:48.441Z,1002.23
2023-10-23T15:28:48.451Z,1002.26
2023-10-23T15:29:48.432Z,1002.25
2023-10-23T15:30:48.407Z,1002.18
2023-10-23T15:31:48.541Z,1002.16
2023-10-23T15:32:48.417Z,1002.18
2023-10-23T15:33:48.403Z,1002.18
2023-10-23T15:34:48.372Z,1002.18
2023-10-23T15:35:48.349Z,1002.15
2023-10-23T15:36:48.340Z,1002.13
2023-10-23T15:37:48.336Z,1002.11
2023-10-23T15:38:48.316Z,1002.09
2023-10-23T15:39:48.386Z,1002.08
2023-10-23T15:40:48.320Z,1002.08
2023-10-23T15:41:48.283Z,1002.05
2023-10-23T15:42:48.280Z,1002.07
2023-10-23T15:43:48.267Z,1002.06
2023-10-23T15:44:48.252Z,1002.03
2023-10-23T15:45:48.276Z,1002.02
2023-10-23T15:46:48.304Z,1001.98
2023-10-23T15:47:48.236Z,1001.93
2023-10-23T15:48:48.208Z,1001.91
2023-10-23T15:49:48.195Z,1001.95
2023-10-23T15:50:48.202Z,1001.93
2023-10-23T15:51:48.177Z,1001.93
2023-10-23T15:52:48.158Z,1001.93
2023-10-23T15:53:48.152Z,1001.97
2023-10-23T15:54:48.136Z,1001.99
2023-10-23T15:55:48.153Z,1002.02
2023-10-23T15:56:48.153Z,1002.03
2023-10-23T15:57:48.104Z,1002.02
2023-10-23T15:58:48.092Z,1002.05
2023-10-23T15:59:48.086Z,1002.05
2023-10-23T16:00:48.117Z,1002.05
2023-10-23T16:01:48.153Z,1002.04
2023-10-23T16:02:48.066Z,1002.07
2023-10-23T16:03:48.113Z,1002.07
2023-10-23T16:04:48.398Z,1002.08
2023-10-23T16:05:48.019Z,1002.13
2023-10-23T16:06:48.042Z,1002.19
2023-10-23T16:07:47.992Z,1002.24
2023-10-23T16:08:47.985Z,1002.24
2023-10-23T16:09:47.970Z,1002.27
2023-10-23T16:10:48.012Z,1002.28
2023-10-23T16:11:47.949Z,1002.29
2023-10-23T16:12:47.978Z,1002.35
2023-10-23T16:13:47.926Z,1002.34
2023-10-23T16:14:56.886Z,1002.35
2023-10-23T16:15:48.916Z,1002.36
2023-10-23T16:16:47.980Z,1002.36
2023-10-23T16:17:47.944Z,1002.40
2023-10-23T16:18:47.872Z,1002.42
2023-10-23T16:19:47.858Z,1002.42
2023-10-23T16:20:47.841Z,1002.48
2023-10-23T16:21:47.841Z,1002.43
